sensor_id;sensor_type;location;lat;lon;timestamp;P1;durP1;ratioP1;P2;durP2;ratioP2
16466;SDS011;8344;47.560;9.710;2022-09-12T00:01:32;0.30;;;0.30;;
16466;SDS011;8344;47.560;9.710;2022-09-12T00:03:59;0.50;;;0.50;;
16466;SDS011;8344;47.560;9.710;2022-09-12T00:06:26;0.30;;;0.30;;
16466;SDS011;8344;47.560;9.710;2022-09-12T00:08:55;0.30;;;0.30;;
16466;SDS011;8344;47.560;9.710;2022-09-12T00:11:21;0.20;;;0.20;;
16466;SDS011;8344;47.560;9.710;2022-09-12T00:13:46;0.32;;;0.32;;
16466;SDS011;8344;47.560;9.710;2022-09-12T00:16:19;0.40;;;0.40;;
16466;SDS011;8344;47.560;9.710;2022-09-12T00:18:45;0.30;;;0.30;;
16466;SDS011;8344;47.560;9.710;2022-09-12T00:21:10;0.20;;;0.20;;
16466;SDS011;8344;47.560;9.710;2022-09-12T00:23:36;0.20;;;0.20;;
16466;SDS011;8344;47.560;9.710;2022-09-12T00:26:03;0.52;;;0.52;;
16466;SDS011;8344;47.560;9.710;2022-09-12T00:28:28;0.30;;;0.30;;
16466;SDS011;8344;47.560;9.710;2022-09-12T00:30:53;0.40;;;0.40;;
16466;SDS011;8344;47.560;9.710;2022-09-12T00:33:18;0.40;;;0.40;;
16466;SDS011;8344;47.560;9.710;2022-09-12T00:35:45;0.40;;;0.40;;
16466;SDS011;8344;47.560;9.710;2022-09-12T00:38:11;0.40;;;0.40;;
16466;SDS011;8344;47.560;9.710;2022-09-12T00:40:36;0.30;;;0.30;;
16466;SDS011;8344;47.560;9.710;2022-09-12T00:43:02;0.40;;;0.40;;
16466;SDS011;8344;47.560;9.710;2022-09-12T00:45:27;0.38;;;0.38;;
16466;SDS011;8344;47.560;9.710;2022-09-12T00:47:53;0.40;;;0.40;;
16466;SDS011;8344;47.560;9.710;2022-09-12T00:50:19;0.40;;;0.40;;
16466;SDS011;8344;47.560;9.710;2022-09-12T00:52:51;0.40;;;0.40;;
16466;SDS011;8344;47.560;9.710;2022-09-12T00:55:24;0.45;;;0.45;;
16466;SDS011;8344;47.560;9.710;2022-09-12T01:00:16;0.40;;;0.40;;
16466;SDS011;8344;47.560;9.710;2022-09-12T01:02:43;0.30;;;0.30;;
16466;SDS011;8344;47.560;9.710;2022-09-12T01:05:09;0.60;;;0.60;;
16466;SDS011;8344;47.560;9.710;2022-09-12T01:07:35;0.20;;;0.20;;
16466;SDS011;8344;47.560;9.710;2022-09-12T01:10:01;0.40;;;0.40;;
16466;SDS011;8344;47.560;9.710;2022-09-12T01:12:26;0.30;;;0.30;;
16466;SDS011;8344;47.560;9.710;2022-09-12T01:14:52;0.20;;;0.20;;
16466;SDS011;8344;47.560;9.710;2022-09-12T01:17:17;0.20;;;0.20;;
16466;SDS011;8344;47.560;9.710;2022-09-12T01:24:51;0.40;;;0.40;;
16466;SDS011;8344;47.560;9.710;2022-09-12T01:27:39;0.30;;;0.30;;
16466;SDS011;8344;47.560;9.710;2022-09-12T01:30:23;0.38;;;0.38;;
16466;SDS011;8344;47.560;9.710;2022-09-12T01:32:57;0.30;;;0.30;;
16466;SDS011;8344;47.560;9.710;2022-09-12T01:40:30;0.30;;;0.30;;
16466;SDS011;8344;47.560;9.710;2022-09-12T01:43:02;0.50;;;0.50;;
16466;SDS011;8344;47.560;9.710;2022-09-12T01:48:07;0.30;;;0.30;;
16466;SDS011;8344;47.560;9.710;2022-09-12T01:50:36;0.40;;;0.40;;
16466;SDS011;8344;47.560;9.710;2022-09-12T01:53:23;0.40;;;0.40;;
16466;SDS011;8344;47.560;9.710;2022-09-12T01:55:51;0.32;;;0.32;;
16466;SDS011;8344;47.560;9.710;2022-09-12T01:58:20;0.40;;;0.40;;
16466;SDS011;8344;47.560;9.710;2022-09-12T02:00:47;0.32;;;0.32;;
16466;SDS011;8344;47.560;9.710;2022-09-12T02:03:15;0.30;;;0.30;;
16466;SDS011;8344;47.560;9.710;2022-09-12T02:05:45;0.40;;;0.40;;
16466;SDS011;8344;47.560;9.710;2022-09-12T02:08:13;0.40;;;0.40;;
16466;SDS011;8344;47.560;9.710;2022-09-12T02:10:42;0.30;;;0.30;;
16466;SDS011;8344;47.560;9.710;2022-09-12T02:13:10;0.40;;;0.40;;
16466;SDS011;8344;47.560;9.710;2022-09-12T02:15:37;0.35;;;0.35;;
16466;SDS011;8344;47.560;9.710;2022-09-12T02:18:03;0.40;;;0.40;;
16466;SDS011;8344;47.560;9.710;2022-09-12T02:20:29;0.40;;;0.40;;
16466;SDS011;8344;47.560;9.710;2022-09-12T02:22:57;0.50;;;0.50;;
16466;SDS011;8344;47.560;9.710;2022-09-12T02:25:24;0.40;;;0.40;;
16466;SDS011;8344;47.560;9.710;2022-09-12T02:27:52;0.32;;;0.32;;
16466;SDS011;8344;47.560;9.710;2022-09-12T02:30:18;0.47;;;0.47;;
16466;SDS011;8344;47.560;9.710;2022-09-12T02:33:00;0.40;;;0.40;;
16466;SDS011;8344;47.560;9.710;2022-09-12T02:35:34;0.40;;;0.40;;
16466;SDS011;8344;47.560;9.710;2022-09-12T02:38:04;0.40;;;0.40;;
16466;SDS011;8344;47.560;9.710;2022-09-12T02:40:31;0.30;;;0.30;;
16466;SDS011;8344;47.560;9.710;2022-09-12T02:42:57;0.43;;;0.43;;
16466;SDS011;8344;47.560;9.710;2022-09-12T02:45:22;0.30;;;0.30;;
16466;SDS011;8344;47.560;9.710;2022-09-12T02:47:52;0.32;;;0.32;;
16466;SDS011;8344;47.560;9.710;2022-09-12T02:50:18;0.40;;;0.40;;
16466;SDS011;8344;47.560;9.710;2022-09-12T02:52:44;0.30;;;0.30;;
16466;SDS011;8344;47.560;9.710;2022-09-12T02:55:09;0.30;;;0.30;;
16466;SDS011;8344;47.560;9.710;2022-09-12T02:57:37;0.30;;;0.30;;
16466;SDS011;8344;47.560;9.710;2022-09-12T03:00:03;0.40;;;0.40;;
16466;SDS011;8344;47.560;9.710;2022-09-12T03:10:50;0.50;;;0.50;;
16466;SDS011;8344;47.560;9.710;2022-09-12T03:13:24;0.47;;;0.47;;
16466;SDS011;8344;47.560;9.710;2022-09-12T03:20:52;0.40;;;0.40;;
16466;SDS011;8344;47.560;9.710;2022-09-12T03:26:12;0.40;;;0.40;;
16466;SDS011;8344;47.560;9.710;2022-09-12T03:28:39;0.43;;;0.43;;
16466;SDS011;8344;47.560;9.710;2022-09-12T03:31:13;0.38;;;0.38;;
16466;SDS011;8344;47.560;9.710;2022-09-12T03:33:38;0.25;;;0.25;;
16466;SDS011;8344;47.560;9.710;2022-09-12T03:36:04;0.30;;;0.30;;
16466;SDS011;8344;47.560;9.710;2022-09-12T03:38:29;0.20;;;0.20;;
16466;SDS011;8344;47.560;9.710;2022-09-12T03:40:55;0.30;;;0.30;;
16466;SDS011;8344;47.560;9.710;2022-09-12T03:43:20;0.30;;;0.30;;
16466;SDS011;8344;47.560;9.710;2022-09-12T03:45:46;0.30;;;0.30;;
16466;SDS011;8344;47.560;9.710;2022-09-12T03:48:13;0.25;;;0.25;;
16466;SDS011;8344;47.560;9.710;2022-09-12T03:50:39;0.30;;;0.30;;
16466;SDS011;8344;47.560;9.710;2022-09-12T03:53:04;0.50;;;0.50;;
16466;SDS011;8344;47.560;9.710;2022-09-12T03:55:29;0.30;;;0.30;;
16466;SDS011;8344;47.560;9.710;2022-09-12T03:57:55;0.35;;;0.35;;
16466;SDS011;8344;47.560;9.710;2022-09-12T04:00:20;0.50;;;0.50;;
16466;SDS011;8344;47.560;9.710;2022-09-12T04:02:45;0.47;;;0.47;;
16466;SDS011;8344;47.560;9.710;2022-09-12T04:05:11;0.50;;;0.50;;
16466;SDS011;8344;47.560;9.710;2022-09-12T04:07:36;0.30;;;0.30;;
16466;SDS011;8344;47.560;9.710;2022-09-12T04:10:01;0.30;;;0.30;;
16466;SDS011;8344;47.560;9.710;2022-09-12T04:12:27;0.30;;;0.30;;
16466;SDS011;8344;47.560;9.710;2022-09-12T04:14:53;0.40;;;0.40;;
16466;SDS011;8344;47.560;9.710;2022-09-12T04:17:18;0.38;;;0.38;;
16466;SDS011;8344;47.560;9.710;2022-09-12T04:19:43;0.40;;;0.40;;
16466;SDS011;8344;47.560;9.710;2022-09-12T04:22:08;0.30;;;0.30;;
16466;SDS011;8344;47.560;9.710;2022-09-12T04:24:33;0.40;;;0.40;;
16466;SDS011;8344;47.560;9.710;2022-09-12T04:26:58;0.30;;;0.30;;
16466;SDS011;8344;47.560;9.710;2022-09-12T04:29:24;0.38;;;0.38;;
16466;SDS011;8344;47.560;9.710;2022-09-12T04:31:49;0.50;;;0.50;;
16466;SDS011;8344;47.560;9.710;2022-09-12T04:34:14;0.40;;;0.40;;
16466;SDS011;8344;47.560;9.710;2022-09-12T04:36:39;0.40;;;0.40;;
16466;SDS011;8344;47.560;9.710;2022-09-12T04:39:05;0.50;;;0.50;;
16466;SDS011;8344;47.560;9.710;2022-09-12T04:41:32;0.52;;;0.52;;
16466;SDS011;8344;47.560;9.710;2022-09-12T04:43:58;0.40;;;0.40;;
16466;SDS011;8344;47.560;9.710;2022-09-12T04:46:25;0.30;;;0.30;;
16466;SDS011;8344;47.560;9.710;2022-09-12T04:48:51;0.40;;;0.40;;
16466;SDS011;8344;47.560;9.710;2022-09-12T04:51:17;0.43;;;0.43;;
16466;SDS011;8344;47.560;9.710;2022-09-12T04:53:46;0.40;;;0.40;;
16466;SDS011;8344;47.560;9.710;2022-09-12T04:56:11;0.45;;;0.45;;
16466;SDS011;8344;47.560;9.710;2022-09-12T04:58:36;0.60;;;0.60;;
16466;SDS011;8344;47.560;9.710;2022-09-12T05:01:08;0.30;;;0.30;;
16466;SDS011;8344;47.560;9.710;2022-09-12T05:03:34;0.30;;;0.30;;
16466;SDS011;8344;47.560;9.710;2022-09-12T05:06:02;0.40;;;0.40;;
16466;SDS011;8344;47.560;9.710;2022-09-12T05:08:28;0.50;;;0.50;;
16466;SDS011;8344;47.560;9.710;2022-09-12T05:10:54;0.50;;;0.50;;
16466;SDS011;8344;47.560;9.710;2022-09-12T05:13:19;0.30;;;0.30;;
16466;SDS011;8344;47.560;9.710;2022-09-12T05:15:52;0.43;;;0.43;;
16466;SDS011;8344;47.560;9.710;2022-09-12T05:18:18;0.50;;;0.50;;
16466;SDS011;8344;47.560;9.710;2022-09-12T05:20:43;0.40;;;0.40;;
16466;SDS011;8344;47.560;9.710;2022-09-12T05:23:08;0.50;;;0.50;;
16466;SDS011;8344;47.560;9.710;2022-09-12T05:25:33;0.32;;;0.32;;
16466;SDS011;8344;47.560;9.710;2022-09-12T05:27:58;0.30;;;0.30;;
16466;SDS011;8344;47.560;9.710;2022-09-12T05:30:23;0.50;;;0.50;;
16466;SDS011;8344;47.560;9.710;2022-09-12T05:32:49;0.40;;;0.40;;
16466;SDS011;8344;47.560;9.710;2022-09-12T05:35:14;0.50;;;0.50;;
16466;SDS011;8344;47.560;9.710;2022-09-12T05:37:39;0.40;;;0.40;;
16466;SDS011;8344;47.560;9.710;2022-09-12T05:40:06;0.50;;;0.50;;
16466;SDS011;8344;47.560;9.710;2022-09-12T05:42:32;0.38;;;0.38;;
16466;SDS011;8344;47.560;9.710;2022-09-12T05:44:57;0.47;;;0.47;;
16466;SDS011;8344;47.560;9.710;2022-09-12T05:47:22;0.30;;;0.30;;
16466;SDS011;8344;47.560;9.710;2022-09-12T05:49:48;0.40;;;0.40;;
16466;SDS011;8344;47.560;9.710;2022-09-12T05:52:13;0.50;;;0.50;;
16466;SDS011;8344;47.560;9.710;2022-09-12T05:54:38;0.40;;;0.40;;
16466;SDS011;8344;47.560;9.710;2022-09-12T05:57:05;0.40;;;0.40;;
16466;SDS011;8344;47.560;9.710;2022-09-12T05:59:30;0.40;;;0.40;;
16466;SDS011;8344;47.560;9.710;2022-09-12T06:01:55;0.40;;;0.40;;
16466;SDS011;8344;47.560;9.710;2022-09-12T06:04:20;0.40;;;0.40;;
16466;SDS011;8344;47.560;9.710;2022-09-12T06:06:47;0.30;;;0.30;;
16466;SDS011;8344;47.560;9.710;2022-09-12T06:09:13;0.50;;;0.50;;
16466;SDS011;8344;47.560;9.710;2022-09-12T06:11:39;0.40;;;0.40;;
16466;SDS011;8344;47.560;9.710;2022-09-12T06:14:08;0.20;;;0.20;;
16466;SDS011;8344;47.560;9.710;2022-09-12T06:16:33;0.45;;;0.45;;
16466;SDS011;8344;47.560;9.710;2022-09-12T06:19:03;0.40;;;0.40;;
16466;SDS011;8344;47.560;9.710;2022-09-12T06:21:29;0.25;;;0.25;;
16466;SDS011;8344;47.560;9.710;2022-09-12T06:23:59;0.32;;;0.32;;
16466;SDS011;8344;47.560;9.710;2022-09-12T06:26:24;0.50;;;0.50;;
16466;SDS011;8344;47.560;9.710;2022-09-12T06:28:50;0.30;;;0.30;;
16466;SDS011;8344;47.560;9.710;2022-09-12T06:31:17;0.25;;;0.25;;
16466;SDS011;8344;47.560;9.710;2022-09-12T06:33:44;0.30;;;0.30;;
16466;SDS011;8344;47.560;9.710;2022-09-12T06:36:11;0.30;;;0.30;;
16466;SDS011;8344;47.560;9.710;2022-09-12T06:38:36;0.20;;;0.20;;
16466;SDS011;8344;47.560;9.710;2022-09-12T06:41:02;0.38;;;0.38;;
16466;SDS011;8344;47.560;9.710;2022-09-12T06:43:29;0.32;;;0.32;;
16466;SDS011;8344;47.560;9.710;2022-09-12T06:45:54;0.30;;;0.30;;
16466;SDS011;8344;47.560;9.710;2022-09-12T06:48:20;0.20;;;0.20;;
16466;SDS011;8344;47.560;9.710;2022-09-12T06:50:57;0.20;;;0.20;;
16466;SDS011;8344;47.560;9.710;2022-09-12T06:53:23;0.30;;;0.30;;
16466;SDS011;8344;47.560;9.710;2022-09-12T06:55:58;0.20;;;0.20;;
16466;SDS011;8344;47.560;9.710;2022-09-12T06:58:24;0.30;;;0.30;;
16466;SDS011;8344;47.560;9.710;2022-09-12T07:00:50;0.30;;;0.30;;
16466;SDS011;8344;47.560;9.710;2022-09-12T07:03:15;0.30;;;0.30;;
16466;SDS011;8344;47.560;9.710;2022-09-12T07:05:40;0.30;;;0.30;;
16466;SDS011;8344;47.560;9.710;2022-09-12T07:08:06;0.40;;;0.40;;
16466;SDS011;8344;47.560;9.710;2022-09-12T07:10:31;0.30;;;0.30;;
16466;SDS011;8344;47.560;9.710;2022-09-12T07:12:57;0.20;;;0.20;;
16466;SDS011;8344;47.560;9.710;2022-09-12T07:15:23;0.30;;;0.30;;
16466;SDS011;8344;47.560;9.710;2022-09-12T07:17:48;0.30;;;0.30;;
16466;SDS011;8344;47.560;9.710;2022-09-12T07:20:13;0.30;;;0.30;;
16466;SDS011;8344;47.560;9.710;2022-09-12T07:22:38;0.28;;;0.28;;
16466;SDS011;8344;47.560;9.710;2022-09-12T07:25:05;0.30;;;0.30;;
16466;SDS011;8344;47.560;9.710;2022-09-12T07:27:30;0.20;;;0.20;;
16466;SDS011;8344;47.560;9.710;2022-09-12T07:29:55;0.30;;;0.30;;
16466;SDS011;8344;47.560;9.710;2022-09-12T07:32:20;0.20;;;0.20;;
16466;SDS011;8344;47.560;9.710;2022-09-12T07:34:47;0.25;;;0.25;;
16466;SDS011;8344;47.560;9.710;2022-09-12T07:37:12;0.30;;;0.30;;
16466;SDS011;8344;47.560;9.710;2022-09-12T07:39:37;0.30;;;0.30;;
16466;SDS011;8344;47.560;9.710;2022-09-12T07:42:02;0.40;;;0.40;;
16466;SDS011;8344;47.560;9.710;2022-09-12T07:44:28;0.30;;;0.30;;
16466;SDS011;8344;47.560;9.710;2022-09-12T07:46:53;0.20;;;0.20;;
16466;SDS011;8344;47.560;9.710;2022-09-12T07:49:18;0.25;;;0.25;;
16466;SDS011;8344;47.560;9.710;2022-09-12T07:51:43;0.30;;;0.30;;
16466;SDS011;8344;47.560;9.710;2022-09-12T07:54:09;0.20;;;0.20;;
16466;SDS011;8344;47.560;9.710;2022-09-12T07:56:34;0.30;;;0.30;;
16466;SDS011;8344;47.560;9.710;2022-09-12T07:59:00;0.30;;;0.30;;
16466;SDS011;8344;47.560;9.710;2022-09-12T08:01:25;0.20;;;0.20;;
16466;SDS011;8344;47.560;9.710;2022-09-12T08:03:54;0.20;;;0.20;;
16466;SDS011;8344;47.560;9.710;2022-09-12T08:06:21;0.20;;;0.20;;
16466;SDS011;8344;47.560;9.710;2022-09-12T08:08:48;0.10;;;0.10;;
16466;SDS011;8344;47.560;9.710;2022-09-12T08:11:14;0.20;;;0.20;;
16466;SDS011;8344;47.560;9.710;2022-09-12T08:13:40;0.20;;;0.20;;
16466;SDS011;8344;47.560;9.710;2022-09-12T08:16:06;0.30;;;0.30;;
16466;SDS011;8344;47.560;9.710;2022-09-12T08:18:33;0.30;;;0.30;;
16466;SDS011;8344;47.560;9.710;2022-09-12T08:20:59;0.20;;;0.20;;
16466;SDS011;8344;47.560;9.710;2022-09-12T08:23:24;0.20;;;0.20;;
16466;SDS011;8344;47.560;9.710;2022-09-12T08:25:50;0.30;;;0.30;;
16466;SDS011;8344;47.560;9.710;2022-09-12T08:28:15;0.28;;;0.28;;
16466;SDS011;8344;47.560;9.710;2022-09-12T08:30:41;0.30;;;0.30;;
16466;SDS011;8344;47.560;9.710;2022-09-12T08:33:06;0.23;;;0.23;;
16466;SDS011;8344;47.560;9.710;2022-09-12T08:35:31;0.22;;;0.22;;
16466;SDS011;8344;47.560;9.710;2022-09-12T08:37:57;0.38;;;0.38;;
16466;SDS011;8344;47.560;9.710;2022-09-12T08:40:22;0.20;;;0.20;;
16466;SDS011;8344;47.560;9.710;2022-09-12T08:43:09;0.30;;;0.30;;
16466;SDS011;8344;47.560;9.710;2022-09-12T08:45:50;0.30;;;0.30;;
16466;SDS011;8344;47.560;9.710;2022-09-12T08:48:18;0.30;;;0.30;;
16466;SDS011;8344;47.560;9.710;2022-09-12T08:50:43;0.22;;;0.22;;
16466;SDS011;8344;47.560;9.710;2022-09-12T08:53:11;0.30;;;0.30;;
16466;SDS011;8344;47.560;9.710;2022-09-12T08:56:11;0.30;;;0.30;;
16466;SDS011;8344;47.560;9.710;2022-09-12T08:58:29;0.28;;;0.28;;
16466;SDS011;8344;47.560;9.710;2022-09-12T09:03:47;0.20;;;0.20;;
16466;SDS011;8344;47.560;9.710;2022-09-12T09:06:34;0.28;;;0.28;;
16466;SDS011;8344;47.560;9.710;2022-09-12T09:09:06;0.20;;;0.20;;
16466;SDS011;8344;47.560;9.710;2022-09-12T09:16:56;0.30;;;0.30;;
16466;SDS011;8344;47.560;9.710;2022-09-12T09:19:24;0.20;;;0.20;;
16466;SDS011;8344;47.560;9.710;2022-09-12T09:21:56;0.20;;;0.20;;
16466;SDS011;8344;47.560;9.710;2022-09-12T09:24:24;0.20;;;0.20;;
16466;SDS011;8344;47.560;9.710;2022-09-12T09:26:56;0.20;;;0.20;;
16466;SDS011;8344;47.560;9.710;2022-09-12T09:29:44;0.28;;;0.28;;
16466;SDS011;8344;47.560;9.710;2022-09-12T09:32:13;0.17;;;0.17;;
16466;SDS011;8344;47.560;9.710;2022-09-12T09:34:39;0.20;;;0.20;;
16466;SDS011;8344;47.560;9.710;2022-09-12T09:44:23;0.20;;;0.20;;
16466;SDS011;8344;47.560;9.710;2022-09-12T09:46:49;0.20;;;0.20;;
16466;SDS011;8344;47.560;9.710;2022-09-12T09:49:18;0.20;;;0.20;;
16466;SDS011;8344;47.560;9.710;2022-09-12T09:51:43;0.20;;;0.20;;
16466;SDS011;8344;47.560;9.710;2022-09-12T09:54:15;0.10;;;0.10;;
16466;SDS011;8344;47.560;9.710;2022-09-12T09:56:41;0.10;;;0.10;;
16466;SDS011;8344;47.560;9.710;2022-09-12T09:59:11;0.10;;;0.10;;
16466;SDS011;8344;47.560;9.710;2022-09-12T10:01:42;0.20;;;0.20;;
16466;SDS011;8344;47.560;9.710;2022-09-12T10:04:08;0.10;;;0.10;;
16466;SDS011;8344;47.560;9.710;2022-09-12T10:06:40;0.20;;;0.20;;
16466;SDS011;8344;47.560;9.710;2022-09-12T10:09:17;0.20;;;0.20;;
16466;SDS011;8344;47.560;9.710;2022-09-12T10:11:42;0.20;;;0.20;;
16466;SDS011;8344;47.560;9.710;2022-09-12T10:14:24;0.20;;;0.20;;
16466;SDS011;8344;47.560;9.710;2022-09-12T10:16:51;0.20;;;0.20;;
16466;SDS011;8344;47.560;9.710;2022-09-12T10:19:22;0.10;;;0.10;;
16466;SDS011;8344;47.560;9.710;2022-09-12T10:21:51;0.30;;;0.30;;
16466;SDS011;8344;47.560;9.710;2022-09-12T10:24:24;0.20;;;0.20;;
16466;SDS011;8344;47.560;9.710;2022-09-12T10:26:55;0.15;;;0.15;;
16466;SDS011;8344;47.560;9.710;2022-09-12T10:29:25;0.20;;;0.20;;
16466;SDS011;8344;47.560;9.710;2022-09-12T10:31:53;0.28;;;0.28;;
16466;SDS011;8344;47.560;9.710;2022-09-12T10:34:23;0.20;;;0.20;;
16466;SDS011;8344;47.560;9.710;2022-09-12T10:36:51;0.10;;;0.10;;
16466;SDS011;8344;47.560;9.710;2022-09-12T10:39:17;0.30;;;0.30;;
16466;SDS011;8344;47.560;9.710;2022-09-12T10:41:43;0.20;;;0.20;;
16466;SDS011;8344;47.560;9.710;2022-09-12T10:44:16;0.22;;;0.22;;
16466;SDS011;8344;47.560;9.710;2022-09-12T10:46:41;0.20;;;0.20;;
16466;SDS011;8344;47.560;9.710;2022-09-12T10:51:47;0.20;;;0.20;;
16466;SDS011;8344;47.560;9.710;2022-09-12T10:54:13;0.20;;;0.20;;
16466;SDS011;8344;47.560;9.710;2022-09-12T11:07:13;0.20;;;0.20;;
16466;SDS011;8344;47.560;9.710;2022-09-12T11:37:14;0.20;;;0.20;;
16466;SDS011;8344;47.560;9.710;2022-09-12T11:39:45;0.20;;;0.20;;
16466;SDS011;8344;47.560;9.710;2022-09-12T11:42:15;0.10;;;0.10;;
16466;SDS011;8344;47.560;9.710;2022-09-12T11:44:43;0.15;;;0.15;;
16466;SDS011;8344;47.560;9.710;2022-09-12T11:47:10;0.10;;;0.10;;
16466;SDS011;8344;47.560;9.710;2022-09-12T11:49:40;0.20;;;0.20;;
16466;SDS011;8344;47.560;9.710;2022-09-12T11:52:15;0.20;;;0.20;;
16466;SDS011;8344;47.560;9.710;2022-09-12T11:57:19;0.20;;;0.20;;
16466;SDS011;8344;47.560;9.710;2022-09-12T12:02:24;0.20;;;0.20;;
16466;SDS011;8344;47.560;9.710;2022-09-12T12:05:05;0.20;;;0.20;;
16466;SDS011;8344;47.560;9.710;2022-09-12T12:07:40;0.20;;;0.20;;
16466;SDS011;8344;47.560;9.710;2022-09-12T12:10:07;0.20;;;0.20;;
16466;SDS011;8344;47.560;9.710;2022-09-12T12:12:45;0.20;;;0.20;;
16466;SDS011;8344;47.560;9.710;2022-09-12T12:15:14;0.20;;;0.20;;
16466;SDS011;8344;47.560;9.710;2022-09-12T12:17:40;0.17;;;0.17;;
16466;SDS011;8344;47.560;9.710;2022-09-12T12:20:05;0.10;;;0.10;;
16466;SDS011;8344;47.560;9.710;2022-09-12T12:22:33;0.20;;;0.20;;
16466;SDS011;8344;47.560;9.710;2022-09-12T12:25:01;0.10;;;0.10;;
16466;SDS011;8344;47.560;9.710;2022-09-12T12:32:49;0.20;;;0.20;;
16466;SDS011;8344;47.560;9.710;2022-09-12T12:37:58;0.20;;;0.20;;
16466;SDS011;8344;47.560;9.710;2022-09-12T12:40:24;0.20;;;0.20;;
16466;SDS011;8344;47.560;9.710;2022-09-12T12:42:57;0.10;;;0.10;;
16466;SDS011;8344;47.560;9.710;2022-09-12T12:47:48;0.17;;;0.17;;
16466;SDS011;8344;47.560;9.710;2022-09-12T12:52:47;0.20;;;0.20;;
16466;SDS011;8344;47.560;9.710;2022-09-12T12:55:14;0.20;;;0.20;;
16466;SDS011;8344;47.560;9.710;2022-09-12T12:57:44;0.15;;;0.15;;
16466;SDS011;8344;47.560;9.710;2022-09-12T13:02:56;0.15;;;0.15;;
16466;SDS011;8344;47.560;9.710;2022-09-12T13:05:24;0.10;;;0.10;;
16466;SDS011;8344;47.560;9.710;2022-09-12T13:07:53;0.10;;;0.10;;
16466;SDS011;8344;47.560;9.710;2022-09-12T13:10:27;0.20;;;0.20;;
16466;SDS011;8344;47.560;9.710;2022-09-12T13:12:53;0.10;;;0.10;;
16466;SDS011;8344;47.560;9.710;2022-09-12T13:20:46;0.10;;;0.10;;
16466;SDS011;8344;47.560;9.710;2022-09-12T13:23:21;0.10;;;0.10;;
16466;SDS011;8344;47.560;9.710;2022-09-12T13:25:51;0.13;;;0.13;;
16466;SDS011;8344;47.560;9.710;2022-09-12T13:28:16;0.20;;;0.20;;
16466;SDS011;8344;47.560;9.710;2022-09-12T13:30:43;0.20;;;0.20;;
16466;SDS011;8344;47.560;9.710;2022-09-12T13:35:38;0.10;;;0.10;;
16466;SDS011;8344;47.560;9.710;2022-09-12T13:38:12;0.20;;;0.20;;
16466;SDS011;8344;47.560;9.710;2022-09-12T13:43:16;0.15;;;0.15;;
16466;SDS011;8344;47.560;9.710;2022-09-12T13:45:43;0.20;;;0.20;;
16466;SDS011;8344;47.560;9.710;2022-09-12T13:48:12;0.20;;;0.20;;
16466;SDS011;8344;47.560;9.710;2022-09-12T13:50:40;0.20;;;0.20;;
16466;SDS011;8344;47.560;9.710;2022-09-12T13:53:10;0.10;;;0.10;;
16466;SDS011;8344;47.560;9.710;2022-09-12T13:55:38;0.20;;;0.20;;
16466;SDS011;8344;47.560;9.710;2022-09-12T13:58:04;0.20;;;0.20;;
16466;SDS011;8344;47.560;9.710;2022-09-12T14:00:30;0.20;;;0.20;;
16466;SDS011;8344;47.560;9.710;2022-09-12T14:02:56;0.20;;;0.20;;
16466;SDS011;8344;47.560;9.710;2022-09-12T14:05:41;0.10;;;0.10;;
16466;SDS011;8344;47.560;9.710;2022-09-12T14:08:08;0.10;;;0.10;;
16466;SDS011;8344;47.560;9.710;2022-09-12T14:10:36;0.20;;;0.20;;
16466;SDS011;8344;47.560;9.710;2022-09-12T14:13:03;0.30;;;0.30;;
16466;SDS011;8344;47.560;9.710;2022-09-12T14:15:30;0.20;;;0.20;;
16466;SDS011;8344;47.560;9.710;2022-09-12T14:17:59;0.10;;;0.10;;
16466;SDS011;8344;47.560;9.710;2022-09-12T14:20:25;0.25;;;0.25;;
16466;SDS011;8344;47.560;9.710;2022-09-12T14:22:53;0.20;;;0.20;;
16466;SDS011;8344;47.560;9.710;2022-09-12T14:25:22;0.10;;;0.10;;
16466;SDS011;8344;47.560;9.710;2022-09-12T14:27:52;0.20;;;0.20;;
16466;SDS011;8344;47.560;9.710;2022-09-12T14:30:23;0.20;;;0.20;;
16466;SDS011;8344;47.560;9.710;2022-09-12T14:35:33;0.10;;;0.10;;
16466;SDS011;8344;47.560;9.710;2022-09-12T14:38:04;0.10;;;0.10;;
16466;SDS011;8344;47.560;9.710;2022-09-12T14:40:30;0.10;;;0.10;;
16466;SDS011;8344;47.560;9.710;2022-09-12T14:42:56;0.15;;;0.15;;
16466;SDS011;8344;47.560;9.710;2022-09-12T14:45:23;0.17;;;0.17;;
16466;SDS011;8344;47.560;9.710;2022-09-12T14:47:49;0.10;;;0.10;;
16466;SDS011;8344;47.560;9.710;2022-09-12T14:50:20;0.20;;;0.20;;
16466;SDS011;8344;47.560;9.710;2022-09-12T14:52:46;0.20;;;0.20;;
16466;SDS011;8344;47.560;9.710;2022-09-12T14:55:29;0.20;;;0.20;;
16466;SDS011;8344;47.560;9.710;2022-09-12T15:00:36;0.10;;;0.10;;
16466;SDS011;8344;47.560;9.710;2022-09-12T15:03:18;0.10;;;0.10;;
16466;SDS011;8344;47.560;9.710;2022-09-12T15:05:47;0.20;;;0.20;;
16466;SDS011;8344;47.560;9.710;2022-09-12T15:08:13;0.20;;;0.20;;
16466;SDS011;8344;47.560;9.710;2022-09-12T15:10:39;0.10;;;0.10;;
16466;SDS011;8344;47.560;9.710;2022-09-12T15:15:29;0.10;;;0.10;;
16466;SDS011;8344;47.560;9.710;2022-09-12T15:17:54;0.10;;;0.10;;
16466;SDS011;8344;47.560;9.710;2022-09-12T15:20:19;0.10;;;0.10;;
16466;SDS011;8344;47.560;9.710;2022-09-12T15:22:45;0.20;;;0.20;;
16466;SDS011;8344;47.560;9.710;2022-09-12T15:25:11;0.20;;;0.20;;
16466;SDS011;8344;47.560;9.710;2022-09-12T15:27:36;0.20;;;0.20;;
16466;SDS011;8344;47.560;9.710;2022-09-12T15:30:04;0.10;;;0.10;;
16466;SDS011;8344;47.560;9.710;2022-09-12T15:32:30;0.17;;;0.17;;
16466;SDS011;8344;47.560;9.710;2022-09-12T15:34:55;0.20;;;0.20;;
16466;SDS011;8344;47.560;9.710;2022-09-12T15:37:21;0.10;;;0.10;;
16466;SDS011;8344;47.560;9.710;2022-09-12T15:39:47;0.20;;;0.20;;
16466;SDS011;8344;47.560;9.710;2022-09-12T15:42:12;0.20;;;0.20;;
16466;SDS011;8344;47.560;9.710;2022-09-12T15:44:38;0.20;;;0.20;;
16466;SDS011;8344;47.560;9.710;2022-09-12T15:47:03;0.10;;;0.10;;
16466;SDS011;8344;47.560;9.710;2022-09-12T15:49:29;0.25;;;0.25;;
16466;SDS011;8344;47.560;9.710;2022-09-12T15:51:54;0.10;;;0.10;;
16466;SDS011;8344;47.560;9.710;2022-09-12T15:54:19;0.23;;;0.23;;
16466;SDS011;8344;47.560;9.710;2022-09-12T15:56:44;0.20;;;0.20;;
16466;SDS011;8344;47.560;9.710;2022-09-12T15:59:10;0.20;;;0.20;;
16466;SDS011;8344;47.560;9.710;2022-09-12T16:01:35;0.10;;;0.10;;
16466;SDS011;8344;47.560;9.710;2022-09-12T16:04:00;0.10;;;0.10;;
16466;SDS011;8344;47.560;9.710;2022-09-12T16:06:27;0.20;;;0.20;;
16466;SDS011;8344;47.560;9.710;2022-09-12T16:08:53;0.10;;;0.10;;
16466;SDS011;8344;47.560;9.710;2022-09-12T16:11:20;0.20;;;0.20;;
16466;SDS011;8344;47.560;9.710;2022-09-12T16:13:45;0.17;;;0.17;;
16466;SDS011;8344;47.560;9.710;2022-09-12T16:16:10;0.13;;;0.13;;
16466;SDS011;8344;47.560;9.710;2022-09-12T16:18:38;0.10;;;0.10;;
16466;SDS011;8344;47.560;9.710;2022-09-12T16:21:03;0.20;;;0.20;;
16466;SDS011;8344;47.560;9.710;2022-09-12T16:23:28;0.10;;;0.10;;
16466;SDS011;8344;47.560;9.710;2022-09-12T16:26:00;0.20;;;0.20;;
16466;SDS011;8344;47.560;9.710;2022-09-12T16:28:26;0.17;;;0.17;;
16466;SDS011;8344;47.560;9.710;2022-09-12T16:30:57;0.10;;;0.10;;
16466;SDS011;8344;47.560;9.710;2022-09-12T16:33:23;0.20;;;0.20;;
16466;SDS011;8344;47.560;9.710;2022-09-12T16:35:48;0.20;;;0.20;;
16466;SDS011;8344;47.560;9.710;2022-09-12T16:38:15;0.10;;;0.10;;
16466;SDS011;8344;47.560;9.710;2022-09-12T16:40:40;0.20;;;0.20;;
16466;SDS011;8344;47.560;9.710;2022-09-12T16:43:05;0.20;;;0.20;;
16466;SDS011;8344;47.560;9.710;2022-09-12T16:45:31;0.20;;;0.20;;
16466;SDS011;8344;47.560;9.710;2022-09-12T16:47:56;0.20;;;0.20;;
16466;SDS011;8344;47.560;9.710;2022-09-12T16:50:21;0.20;;;0.20;;
16466;SDS011;8344;47.560;9.710;2022-09-12T16:52:47;0.20;;;0.20;;
16466;SDS011;8344;47.560;9.710;2022-09-12T16:55:12;0.10;;;0.10;;
16466;SDS011;8344;47.560;9.710;2022-09-12T16:57:37;0.13;;;0.13;;
16466;SDS011;8344;47.560;9.710;2022-09-12T17:00:02;0.22;;;0.22;;
16466;SDS011;8344;47.560;9.710;2022-09-12T17:02:28;0.20;;;0.20;;
16466;SDS011;8344;47.560;9.710;2022-09-12T17:04:53;0.20;;;0.20;;
16466;SDS011;8344;47.560;9.710;2022-09-12T17:07:18;0.20;;;0.20;;
16466;SDS011;8344;47.560;9.710;2022-09-12T17:09:44;0.10;;;0.10;;